sensor_id;sensor_type;location;lat;lon;timestamp;P1;durP1;ratioP1;P2;durP2;ratioP2
65706;SDS011;52423;43.512;5.220;2023-05-07T00:02:22;3.20;;;1.70;;
65706;SDS011;52423;43.512;5.220;2023-05-07T00:04:48;2.38;;;1.70;;
65706;SDS011;52423;43.512;5.220;2023-05-07T00:07:14;3.45;;;1.67;;
65706;SDS011;52423;43.512;5.220;2023-05-07T00:09:40;4.68;;;1.88;;
65706;SDS011;52423;43.512;5.220;2023-05-07T00:12:05;5.07;;;1.73;;
65706;SDS011;52423;43.512;5.220;2023-05-07T00:14:31;2.70;;;1.70;;
65706;SDS011;52423;43.512;5.220;2023-05-07T00:16:56;4.45;;;1.75;;
65706;SDS011;52423;43.512;5.220;2023-05-07T00:19:22;1.48;;;1.35;;
65706;SDS011;52423;43.512;5.220;2023-05-07T00:21:47;2.58;;;1.85;;
65706;SDS011;52423;43.512;5.220;2023-05-07T00:24:12;3.20;;;1.88;;
65706;SDS011;52423;43.512;5.220;2023-05-07T00:26:38;2.10;;;1.77;;
65706;SDS011;52423;43.512;5.220;2023-05-07T00:29:03;5.47;;;1.67;;
65706;SDS011;52423;43.512;5.220;2023-05-07T00:31:28;2.53;;;1.83;;
65706;SDS011;52423;43.512;5.220;2023-05-07T00:33:54;2.70;;;2.08;;
65706;SDS011;52423;43.512;5.220;2023-05-07T00:36:19;4.63;;;2.05;;
65706;SDS011;52423;43.512;5.220;2023-05-07T00:38:45;2.90;;;2.20;;
65706;SDS011;52423;43.512;5.220;2023-05-07T00:41:10;2.90;;;2.10;;
65706;SDS011;52423;43.512;5.220;2023-05-07T00:43:35;2.35;;;2.00;;
65706;SDS011;52423;43.512;5.220;2023-05-07T00:46:01;3.47;;;2.03;;
65706;SDS011;52423;43.512;5.220;2023-05-07T00:48:26;2.58;;;1.98;;
65706;SDS011;52423;43.512;5.220;2023-05-07T00:50:52;3.50;;;2.28;;
65706;SDS011;52423;43.512;5.220;2023-05-07T00:53:17;3.90;;;2.53;;
65706;SDS011;52423;43.512;5.220;2023-05-07T00:55:43;3.05;;;2.33;;
65706;SDS011;52423;43.512;5.220;2023-05-07T00:58:08;2.60;;;2.08;;
65706;SDS011;52423;43.512;5.220;2023-05-07T01:00:33;2.63;;;2.28;;
65706;SDS011;52423;43.512;5.220;2023-05-07T01:02:59;2.40;;;2.20;;
65706;SDS011;52423;43.512;5.220;2023-05-07T01:05:25;5.25;;;2.33;;
65706;SDS011;52423;43.512;5.220;2023-05-07T01:07:52;1.77;;;1.67;;
65706;SDS011;52423;43.512;5.220;2023-05-07T01:10:19;1.95;;;1.80;;
65706;SDS011;52423;43.512;5.220;2023-05-07T01:12:45;5.88;;;1.85;;
65706;SDS011;52423;43.512;5.220;2023-05-07T01:15:12;1.80;;;1.70;;
65706;SDS011;52423;43.512;5.220;2023-05-07T01:17:38;2.83;;;1.80;;
65706;SDS011;52423;43.512;5.220;2023-05-07T01:20:05;2.47;;;1.88;;
65706;SDS011;52423;43.512;5.220;2023-05-07T01:22:35;2.20;;;2.00;;
65706;SDS011;52423;43.512;5.220;2023-05-07T01:25:02;3.90;;;2.20;;
65706;SDS011;52423;43.512;5.220;2023-05-07T01:27:28;2.53;;;2.08;;
65706;SDS011;52423;43.512;5.220;2023-05-07T01:29:54;4.45;;;2.30;;
65706;SDS011;52423;43.512;5.220;2023-05-07T01:32:21;3.70;;;2.00;;
65706;SDS011;52423;43.512;5.220;2023-05-07T01:34:52;9.23;;;2.22;;
65706;SDS011;52423;43.512;5.220;2023-05-07T01:37:18;5.85;;;2.03;;
65706;SDS011;52423;43.512;5.220;2023-05-07T01:39:45;3.92;;;1.75;;
65706;SDS011;52423;43.512;5.220;2023-05-07T01:42:11;2.83;;;2.00;;
65706;SDS011;52423;43.512;5.220;2023-05-07T01:44:37;7.55;;;2.13;;
65706;SDS011;52423;43.512;5.220;2023-05-07T01:47:03;2.72;;;2.10;;
65706;SDS011;52423;43.512;5.220;2023-05-07T01:49:28;3.83;;;2.20;;
65706;SDS011;52423;43.512;5.220;2023-05-07T01:51:55;4.55;;;2.00;;
65706;SDS011;52423;43.512;5.220;2023-05-07T01:54:24;3.97;;;2.15;;
65706;SDS011;52423;43.512;5.220;2023-05-07T01:56:52;2.17;;;1.60;;
65706;SDS011;52423;43.512;5.220;2023-05-07T01:59:18;2.58;;;1.55;;
65706;SDS011;52423;43.512;5.220;2023-05-07T02:01:43;2.08;;;1.58;;
65706;SDS011;52423;43.512;5.220;2023-05-07T02:04:08;2.75;;;1.73;;
65706;SDS011;52423;43.512;5.220;2023-05-07T02:06:34;3.28;;;1.65;;
65706;SDS011;52423;43.512;5.220;2023-05-07T02:08:59;3.35;;;1.70;;
65706;SDS011;52423;43.512;5.220;2023-05-07T02:11:25;8.57;;;1.90;;
65706;SDS011;52423;43.512;5.220;2023-05-07T02:13:50;3.95;;;1.90;;
65706;SDS011;52423;43.512;5.220;2023-05-07T02:16:16;2.10;;;1.75;;
65706;SDS011;52423;43.512;5.220;2023-05-07T02:18:41;3.08;;;1.77;;
65706;SDS011;52423;43.512;5.220;2023-05-07T02:21:06;4.93;;;2.00;;
65706;SDS011;52423;43.512;5.220;2023-05-07T02:23:32;2.15;;;1.77;;
65706;SDS011;52423;43.512;5.220;2023-05-07T02:25:57;3.75;;;1.52;;
65706;SDS011;52423;43.512;5.220;2023-05-07T02:28:23;5.20;;;1.50;;
65706;SDS011;52423;43.512;5.220;2023-05-07T02:30:48;3.00;;;1.63;;
65706;SDS011;52423;43.512;5.220;2023-05-07T02:33:14;2.10;;;1.83;;
65706;SDS011;52423;43.512;5.220;2023-05-07T02:35:39;1.83;;;1.70;;
65706;SDS011;52423;43.512;5.220;2023-05-07T02:38:05;1.48;;;1.38;;
65706;SDS011;52423;43.512;5.220;2023-05-07T02:40:30;4.97;;;1.75;;
65706;SDS011;52423;43.512;5.220;2023-05-07T02:42:58;1.83;;;1.45;;
65706;SDS011;52423;43.512;5.220;2023-05-07T02:45:24;1.65;;;1.55;;
65706;SDS011;52423;43.512;5.220;2023-05-07T02:47:49;3.05;;;1.60;;
65706;SDS011;52423;43.512;5.220;2023-05-07T02:50:15;4.55;;;1.50;;
65706;SDS011;52423;43.512;5.220;2023-05-07T02:52:40;3.65;;;1.75;;
65706;SDS011;52423;43.512;5.220;2023-05-07T02:55:05;3.42;;;1.80;;
65706;SDS011;52423;43.512;5.220;2023-05-07T02:57:31;1.65;;;1.55;;
65706;SDS011;52423;43.512;5.220;2023-05-07T02:59:57;1.98;;;1.73;;
65706;SDS011;52423;43.512;5.220;2023-05-07T03:02:23;2.72;;;1.60;;
65706;SDS011;52423;43.512;5.220;2023-05-07T03:04:48;4.45;;;1.55;;
65706;SDS011;52423;43.512;5.220;2023-05-07T03:07:14;3.58;;;1.65;;
65706;SDS011;52423;43.512;5.220;2023-05-07T03:09:39;6.13;;;1.70;;
65706;SDS011;52423;43.512;5.220;2023-05-07T03:12:04;6.78;;;1.77;;
65706;SDS011;52423;43.512;5.220;2023-05-07T03:14:30;1.80;;;1.65;;
65706;SDS011;52423;43.512;5.220;2023-05-07T03:16:55;5.20;;;1.60;;
65706;SDS011;52423;43.512;5.220;2023-05-07T03:19:21;2.65;;;1.40;;
65706;SDS011;52423;43.512;5.220;2023-05-07T03:21:46;2.13;;;1.50;;
65706;SDS011;52423;43.512;5.220;2023-05-07T03:24:12;4.28;;;1.63;;
65706;SDS011;52423;43.512;5.220;2023-05-07T03:26:37;1.98;;;1.60;;
65706;SDS011;52423;43.512;5.220;2023-05-07T03:29:03;2.25;;;1.60;;
65706;SDS011;52423;43.512;5.220;2023-05-07T03:31:28;3.20;;;1.75;;
65706;SDS011;52423;43.512;5.220;2023-05-07T03:33:54;4.63;;;1.75;;
65706;SDS011;52423;43.512;5.220;2023-05-07T03:36:20;3.22;;;1.67;;
65706;SDS011;52423;43.512;5.220;2023-05-07T03:38:46;2.33;;;1.80;;
65706;SDS011;52423;43.512;5.220;2023-05-07T03:41:13;3.75;;;1.52;;
65706;SDS011;52423;43.512;5.220;2023-05-07T03:43:38;2.25;;;1.65;;
65706;SDS011;52423;43.512;5.220;2023-05-07T03:46:03;2.53;;;1.60;;
65706;SDS011;52423;43.512;5.220;2023-05-07T03:48:29;2.25;;;1.80;;
65706;SDS011;52423;43.512;5.220;2023-05-07T03:50:55;3.05;;;1.50;;
65706;SDS011;52423;43.512;5.220;2023-05-07T03:53:21;2.25;;;1.95;;
65706;SDS011;52423;43.512;5.220;2023-05-07T03:55:47;3.42;;;1.73;;
65706;SDS011;52423;43.512;5.220;2023-05-07T03:58:12;1.65;;;1.55;;
65706;SDS011;52423;43.512;5.220;2023-05-07T04:00:37;2.08;;;1.90;;
65706;SDS011;52423;43.512;5.220;2023-05-07T04:03:04;2.33;;;1.88;;
65706;SDS011;52423;43.512;5.220;2023-05-07T04:05:30;5.28;;;1.90;;
65706;SDS011;52423;43.512;5.220;2023-05-07T04:07:57;2.53;;;1.50;;
65706;SDS011;52423;43.512;5.220;2023-05-07T04:10:23;2.50;;;2.00;;
65706;SDS011;52423;43.512;5.220;2023-05-07T04:12:48;3.65;;;1.88;;
65706;SDS011;52423;43.512;5.220;2023-05-07T04:15:14;4.93;;;1.90;;
65706;SDS011;52423;43.512;5.220;2023-05-07T04:17:39;6.07;;;2.10;;
65706;SDS011;52423;43.512;5.220;2023-05-07T04:20:06;6.35;;;2.17;;
65706;SDS011;52423;43.512;5.220;2023-05-07T04:22:33;8.68;;;2.22;;
65706;SDS011;52423;43.512;5.220;2023-05-07T04:24:59;2.60;;;2.20;;
65706;SDS011;52423;43.512;5.220;2023-05-07T04:27:25;2.17;;;1.90;;
65706;SDS011;52423;43.512;5.220;2023-05-07T04:29:51;5.90;;;2.40;;
65706;SDS011;52423;43.512;5.220;2023-05-07T04:32:16;3.50;;;2.38;;
65706;SDS011;52423;43.512;5.220;2023-05-07T04:34:42;4.97;;;2.10;;
65706;SDS011;52423;43.512;5.220;2023-05-07T04:37:08;8.10;;;2.08;;
65706;SDS011;52423;43.512;5.220;2023-05-07T04:39:33;5.93;;;1.92;;
65706;SDS011;52423;43.512;5.220;2023-05-07T04:42:00;3.60;;;2.17;;
65706;SDS011;52423;43.512;5.220;2023-05-07T04:44:25;3.92;;;1.92;;
65706;SDS011;52423;43.512;5.220;2023-05-07T04:46:51;3.53;;;2.03;;
65706;SDS011;52423;43.512;5.220;2023-05-07T04:49:16;9.25;;;1.83;;
65706;SDS011;52423;43.512;5.220;2023-05-07T04:51:41;3.72;;;1.75;;
65706;SDS011;52423;43.512;5.220;2023-05-07T04:54:08;4.13;;;2.00;;
65706;SDS011;52423;43.512;5.220;2023-05-07T04:56:33;5.32;;;1.70;;
65706;SDS011;52423;43.512;5.220;2023-05-07T04:58:58;3.55;;;1.92;;
65706;SDS011;52423;43.512;5.220;2023-05-07T05:01:24;3.90;;;1.92;;
65706;SDS011;52423;43.512;5.220;2023-05-07T05:03:49;2.55;;;1.67;;
65706;SDS011;52423;43.512;5.220;2023-05-07T05:06:14;3.40;;;2.03;;
65706;SDS011;52423;43.512;5.220;2023-05-07T05:08:40;3.28;;;1.95;;
65706;SDS011;52423;43.512;5.220;2023-05-07T05:11:05;2.20;;;2.00;;
65706;SDS011;52423;43.512;5.220;2023-05-07T05:13:31;1.90;;;1.75;;
65706;SDS011;52423;43.512;5.220;2023-05-07T05:15:56;2.08;;;1.67;;
65706;SDS011;52423;43.512;5.220;2023-05-07T05:18:22;5.00;;;2.08;;
65706;SDS011;52423;43.512;5.220;2023-05-07T05:20:47;2.10;;;1.80;;
65706;SDS011;52423;43.512;5.220;2023-05-07T05:23:12;3.17;;;1.70;;
65706;SDS011;52423;43.512;5.220;2023-05-07T05:25:38;5.72;;;2.30;;
65706;SDS011;52423;43.512;5.220;2023-05-07T05:28:04;2.38;;;1.70;;
65706;SDS011;52423;43.512;5.220;2023-05-07T05:30:29;2.88;;;1.85;;
65706;SDS011;52423;43.512;5.220;2023-05-07T05:32:55;2.38;;;2.00;;
65706;SDS011;52423;43.512;5.220;2023-05-07T05:35:20;4.03;;;1.90;;
65706;SDS011;52423;43.512;5.220;2023-05-07T05:37:46;2.60;;;1.80;;
65706;SDS011;52423;43.512;5.220;2023-05-07T05:40:11;3.80;;;1.80;;
65706;SDS011;52423;43.512;5.220;2023-05-07T05:42:37;2.35;;;2.00;;
65706;SDS011;52423;43.512;5.220;2023-05-07T05:45:02;2.50;;;2.00;;
65706;SDS011;52423;43.512;5.220;2023-05-07T05:47:28;2.53;;;2.03;;
65706;SDS011;52423;43.512;5.220;2023-05-07T05:49:54;6.97;;;2.17;;
65706;SDS011;52423;43.512;5.220;2023-05-07T05:52:19;3.88;;;2.10;;
65706;SDS011;52423;43.512;5.220;2023-05-07T05:54:48;2.13;;;1.92;;
65706;SDS011;52423;43.512;5.220;2023-05-07T05:57:13;4.00;;;2.08;;
65706;SDS011;52423;43.512;5.220;2023-05-07T05:59:38;2.70;;;2.25;;
65706;SDS011;52423;43.512;5.220;2023-05-07T06:02:04;3.22;;;2.92;;
65706;SDS011;52423;43.512;5.220;2023-05-07T06:04:30;8.35;;;2.13;;
65706;SDS011;52423;43.512;5.220;2023-05-07T06:06:55;6.10;;;2.10;;
65706;SDS011;52423;43.512;5.220;2023-05-07T06:09:21;2.80;;;2.10;;
65706;SDS011;52423;43.512;5.220;2023-05-07T06:11:47;2.47;;;2.28;;
65706;SDS011;52423;43.512;5.220;2023-05-07T06:14:12;2.80;;;2.50;;
65706;SDS011;52423;43.512;5.220;2023-05-07T06:16:37;4.60;;;2.10;;
65706;SDS011;52423;43.512;5.220;2023-05-07T06:19:03;5.00;;;2.17;;
65706;SDS011;52423;43.512;5.220;2023-05-07T06:21:28;4.53;;;2.50;;
65706;SDS011;52423;43.512;5.220;2023-05-07T06:23:53;4.03;;;2.50;;
65706;SDS011;52423;43.512;5.220;2023-05-07T06:26:20;2.38;;;2.17;;
65706;SDS011;52423;43.512;5.220;2023-05-07T06:28:45;6.18;;;2.70;;
65706;SDS011;52423;43.512;5.220;2023-05-07T06:31:17;2.92;;;2.30;;
65706;SDS011;52423;43.512;5.220;2023-05-07T06:33:47;3.65;;;2.88;;
65706;SDS011;52423;43.512;5.220;2023-05-07T06:36:14;3.97;;;2.53;;
65706;SDS011;52423;43.512;5.220;2023-05-07T06:38:39;3.10;;;2.30;;
65706;SDS011;52423;43.512;5.220;2023-05-07T06:41:05;4.80;;;3.08;;
65706;SDS011;52423;43.512;5.220;2023-05-07T06:43:31;5.20;;;2.95;;
65706;SDS011;52423;43.512;5.220;2023-05-07T06:45:57;4.53;;;3.33;;
65706;SDS011;52423;43.512;5.220;2023-05-07T06:48:22;4.28;;;3.03;;
65706;SDS011;52423;43.512;5.220;2023-05-07T06:50:47;3.85;;;3.33;;
65706;SDS011;52423;43.512;5.220;2023-05-07T06:53:13;6.75;;;3.65;;
65706;SDS011;52423;43.512;5.220;2023-05-07T06:55:38;6.40;;;4.20;;
65706;SDS011;52423;43.512;5.220;2023-05-07T06:58:04;4.35;;;3.95;;
65706;SDS011;52423;43.512;5.220;2023-05-07T07:00:29;4.35;;;3.88;;
65706;SDS011;52423;43.512;5.220;2023-05-07T07:02:55;4.20;;;3.75;;
65706;SDS011;52423;43.512;5.220;2023-05-07T07:05:22;10.07;;;3.95;;
65706;SDS011;52423;43.512;5.220;2023-05-07T07:07:48;6.38;;;4.05;;
65706;SDS011;52423;43.512;5.220;2023-05-07T07:10:19;4.30;;;3.90;;
65706;SDS011;52423;43.512;5.220;2023-05-07T07:12:45;7.25;;;4.30;;
65706;SDS011;52423;43.512;5.220;2023-05-07T07:15:10;4.18;;;3.75;;
65706;SDS011;52423;43.512;5.220;2023-05-07T07:17:36;5.72;;;3.70;;
65706;SDS011;52423;43.512;5.220;2023-05-07T07:20:02;4.43;;;4.03;;
65706;SDS011;52423;43.512;5.220;2023-05-07T07:22:27;4.63;;;4.10;;
65706;SDS011;52423;43.512;5.220;2023-05-07T07:24:53;6.22;;;3.80;;
65706;SDS011;52423;43.512;5.220;2023-05-07T07:27:19;4.63;;;3.83;;
65706;SDS011;52423;43.512;5.220;2023-05-07T07:29:44;7.82;;;4.15;;
65706;SDS011;52423;43.512;5.220;2023-05-07T07:32:10;5.43;;;4.07;;
65706;SDS011;52423;43.512;5.220;2023-05-07T07:34:35;4.00;;;3.60;;
65706;SDS011;52423;43.512;5.220;2023-05-07T07:37:00;4.05;;;3.75;;
65706;SDS011;52423;43.512;5.220;2023-05-07T07:39:30;4.30;;;3.40;;
65706;SDS011;52423;43.512;5.220;2023-05-07T07:41:56;3.72;;;2.83;;
65706;SDS011;52423;43.512;5.220;2023-05-07T07:44:21;5.80;;;3.22;;
65706;SDS011;52423;43.512;5.220;2023-05-07T07:46:47;7.47;;;3.10;;
65706;SDS011;52423;43.512;5.220;2023-05-07T07:49:12;3.08;;;2.88;;
65706;SDS011;52423;43.512;5.220;2023-05-07T07:51:37;4.47;;;2.42;;
65706;SDS011;52423;43.512;5.220;2023-05-07T07:54:03;4.90;;;2.45;;
65706;SDS011;52423;43.512;5.220;2023-05-07T07:56:29;8.57;;;2.00;;
65706;SDS011;52423;43.512;5.220;2023-05-07T07:58:54;3.13;;;2.10;;
65706;SDS011;52423;43.512;5.220;2023-05-07T08:01:20;2.38;;;2.17;;
65706;SDS011;52423;43.512;5.220;2023-05-07T08:03:45;2.65;;;1.80;;
65706;SDS011;52423;43.512;5.220;2023-05-07T08:06:10;2.00;;;1.60;;
65706;SDS011;52423;43.512;5.220;2023-05-07T08:08:36;2.42;;;1.88;;
65706;SDS011;52423;43.512;5.220;2023-05-07T08:11:01;3.50;;;1.83;;
65706;SDS011;52423;43.512;5.220;2023-05-07T08:13:26;1.67;;;1.58;;
65706;SDS011;52423;43.512;5.220;2023-05-07T08:15:52;3.63;;;1.88;;
65706;SDS011;52423;43.512;5.220;2023-05-07T08:18:17;2.17;;;1.52;;
65706;SDS011;52423;43.512;5.220;2023-05-07T08:20:43;2.08;;;1.90;;
65706;SDS011;52423;43.512;5.220;2023-05-07T08:23:08;2.30;;;1.70;;
65706;SDS011;52423;43.512;5.220;2023-05-07T08:25:34;2.00;;;1.38;;
65706;SDS011;52423;43.512;5.220;2023-05-07T08:28:00;2.50;;;1.48;;
65706;SDS011;52423;43.512;5.220;2023-05-07T08:30:25;3.28;;;1.75;;
65706;SDS011;52423;43.512;5.220;2023-05-07T08:32:51;1.80;;;1.30;;
65706;SDS011;52423;43.512;5.220;2023-05-07T08:35:16;3.13;;;1.52;;
65706;SDS011;52423;43.512;5.220;2023-05-07T08:37:42;2.78;;;1.40;;
65706;SDS011;52423;43.512;5.220;2023-05-07T08:40:07;1.85;;;1.40;;
65706;SDS011;52423;43.512;5.220;2023-05-07T08:42:35;1.25;;;1.25;;
65706;SDS011;52423;43.512;5.220;2023-05-07T08:45:02;1.88;;;1.75;;
65706;SDS011;52423;43.512;5.220;2023-05-07T08:47:33;1.70;;;1.60;;
65706;SDS011;52423;43.512;5.220;2023-05-07T08:50:04;1.85;;;1.67;;
65706;SDS011;52423;43.512;5.220;2023-05-07T08:52:30;3.65;;;1.98;;
65706;SDS011;52423;43.512;5.220;2023-05-07T08:54:56;8.25;;;2.05;;
65706;SDS011;52423;43.512;5.220;2023-05-07T08:57:21;2.45;;;2.17;;
65706;SDS011;52423;43.512;5.220;2023-05-07T08:59:49;4.30;;;2.25;;
65706;SDS011;52423;43.512;5.220;2023-05-07T09:02:15;4.10;;;2.80;;
65706;SDS011;52423;43.512;5.220;2023-05-07T09:04:41;3.17;;;2.95;;
65706;SDS011;52423;43.512;5.220;2023-05-07T09:07:06;5.32;;;3.35;;
65706;SDS011;52423;43.512;5.220;2023-05-07T09:09:32;4.15;;;3.30;;
65706;SDS011;52423;43.512;5.220;2023-05-07T09:11:58;3.80;;;3.50;;
65706;SDS011;52423;43.512;5.220;2023-05-07T09:14:24;5.22;;;3.78;;
65706;SDS011;52423;43.512;5.220;2023-05-07T09:16:51;3.47;;;3.20;;
65706;SDS011;52423;43.512;5.220;2023-05-07T09:19:21;5.55;;;4.45;;
65706;SDS011;52423;43.512;5.220;2023-05-07T09:21:48;6.03;;;4.43;;
65706;SDS011;52423;43.512;5.220;2023-05-07T09:24:15;19.17;;;5.72;;
65706;SDS011;52423;43.512;5.220;2023-05-07T09:26:40;5.03;;;4.43;;
65706;SDS011;52423;43.512;5.220;2023-05-07T09:29:07;4.18;;;3.75;;
65706;SDS011;52423;43.512;5.220;2023-05-07T09:31:36;7.53;;;3.75;;
65706;SDS011;52423;43.512;5.220;2023-05-07T09:34:04;5.63;;;5.13;;
65706;SDS011;52423;43.512;5.220;2023-05-07T09:36:31;3.95;;;3.50;;
65706;SDS011;52423;43.512;5.220;2023-05-07T09:38:58;3.80;;;3.42;;
65706;SDS011;52423;43.512;5.220;2023-05-07T09:41:24;3.55;;;3.13;;
65706;SDS011;52423;43.512;5.220;2023-05-07T09:43:53;8.50;;;2.95;;
65706;SDS011;52423;43.512;5.220;2023-05-07T09:46:19;3.35;;;3.05;;
65706;SDS011;52423;43.512;5.220;2023-05-07T09:48:56;4.43;;;2.97;;
65706;SDS011;52423;43.512;5.220;2023-05-07T09:51:28;2.90;;;2.42;;
65706;SDS011;52423;43.512;5.220;2023-05-07T09:53:58;6.82;;;3.33;;
65706;SDS011;52423;43.512;5.220;2023-05-07T09:56:27;2.80;;;2.60;;
65706;SDS011;52423;43.512;5.220;2023-05-07T09:58:55;2.38;;;2.15;;
65706;SDS011;52423;43.512;5.220;2023-05-07T10:01:22;4.45;;;3.10;;
65706;SDS011;52423;43.512;5.220;2023-05-07T10:03:50;4.47;;;4.00;;
65706;SDS011;52423;43.512;5.220;2023-05-07T10:06:16;3.58;;;2.72;;
65706;SDS011;52423;43.512;5.220;2023-05-07T10:08:42;3.25;;;2.95;;
65706;SDS011;52423;43.512;5.220;2023-05-07T10:11:08;2.53;;;2.33;;
65706;SDS011;52423;43.512;5.220;2023-05-07T10:13:34;5.35;;;3.95;;
65706;SDS011;52423;43.512;5.220;2023-05-07T10:16:05;2.25;;;2.05;;
65706;SDS011;52423;43.512;5.220;2023-05-07T10:18:31;2.08;;;1.98;;
65706;SDS011;52423;43.512;5.220;2023-05-07T10:21:06;3.30;;;2.13;;
65706;SDS011;52423;43.512;5.220;2023-05-07T10:23:44;9.48;;;2.30;;
65706;SDS011;52423;43.512;5.220;2023-05-07T10:26:11;4.30;;;3.83;;
65706;SDS011;52423;43.512;5.220;2023-05-07T10:28:38;8.13;;;6.03;;
65706;SDS011;52423;43.512;5.220;2023-05-07T10:33:51;3.92;;;3.00;;
65706;SDS011;52423;43.512;5.220;2023-05-07T10:36:17;3.45;;;3.03;;
65706;SDS011;52423;43.512;5.220;2023-05-07T10:38:44;3.25;;;2.97;;
65706;SDS011;52423;43.512;5.220;2023-05-07T10:41:11;2.35;;;2.13;;
65706;SDS011;52423;43.512;5.220;2023-05-07T10:43:40;4.38;;;2.17;;
65706;SDS011;52423;43.512;5.220;2023-05-07T10:46:17;2.65;;;1.80;;
65706;SDS011;52423;43.512;5.220;2023-05-07T10:51:28;3.53;;;2.55;;
65706;SDS011;52423;43.512;5.220;2023-05-07T10:54:18;5.70;;;2.65;;
65706;SDS011;52423;43.512;5.220;2023-05-07T10:56:43;3.97;;;2.65;;
65706;SDS011;52423;43.512;5.220;2023-05-07T11:04:31;8.77;;;3.05;;
65706;SDS011;52423;43.512;5.220;2023-05-07T11:15:09;2.53;;;2.33;;
65706;SDS011;52423;43.512;5.220;2023-05-07T11:17:55;2.90;;;2.35;;
65706;SDS011;52423;43.512;5.220;2023-05-07T11:20:22;3.03;;;2.70;;
65706;SDS011;52423;43.512;5.220;2023-05-07T11:26:03;4.68;;;3.92;;
65706;SDS011;52423;43.512;5.220;2023-05-07T11:28:37;5.63;;;3.13;;
65706;SDS011;52423;43.512;5.220;2023-05-07T11:31:03;6.40;;;2.70;;
65706;SDS011;52423;43.512;5.220;2023-05-07T11:33:32;2.55;;;2.35;;
65706;SDS011;52423;43.512;5.220;2023-05-07T11:36:02;3.30;;;2.30;;
65706;SDS011;52423;43.512;5.220;2023-05-07T11:38:29;7.72;;;2.25;;
65706;SDS011;52423;43.512;5.220;2023-05-07T11:40:56;2.15;;;1.95;;
65706;SDS011;52423;43.512;5.220;2023-05-07T11:43:25;2.40;;;2.03;;
65706;SDS011;52423;43.512;5.220;2023-05-07T11:45:51;2.22;;;1.73;;
65706;SDS011;52423;43.512;5.220;2023-05-07T11:48:17;3.63;;;2.42;;
65706;SDS011;52423;43.512;5.220;2023-05-07T11:50:52;4.32;;;2.10;;
65706;SDS011;52423;43.512;5.220;2023-05-07T11:53:25;3.47;;;2.10;;
65706;SDS011;52423;43.512;5.220;2023-05-07T11:55:52;3.47;;;2.00;;
65706;SDS011;52423;43.512;5.220;2023-05-07T11:58:21;3.00;;;2.10;;
65706;SDS011;52423;43.512;5.220;2023-05-07T12:00:49;3.22;;;2.22;;
65706;SDS011;52423;43.512;5.220;2023-05-07T12:03:15;2.05;;;1.90;;
65706;SDS011;52423;43.512;5.220;2023-05-07T12:05:40;3.65;;;2.20;;
65706;SDS011;52423;43.512;5.220;2023-05-07T12:08:06;4.05;;;2.20;;
65706;SDS011;52423;43.512;5.220;2023-05-07T12:10:32;2.35;;;2.08;;
65706;SDS011;52423;43.512;5.220;2023-05-07T12:12:57;2.80;;;2.05;;
65706;SDS011;52423;43.512;5.220;2023-05-07T12:15:23;2.55;;;1.90;;
65706;SDS011;52423;43.512;5.220;2023-05-07T12:17:48;2.15;;;2.05;;
65706;SDS011;52423;43.512;5.220;2023-05-07T12:20:14;2.28;;;2.03;;
65706;SDS011;52423;43.512;5.220;2023-05-07T12:22:40;5.82;;;2.08;;
65706;SDS011;52423;43.512;5.220;2023-05-07T12:25:06;7.57;;;2.42;;
65706;SDS011;52423;43.512;5.220;2023-05-07T12:27:31;3.55;;;2.17;;
65706;SDS011;52423;43.512;5.220;2023-05-07T12:29:57;4.68;;;2.35;;
65706;SDS011;52423;43.512;5.220;2023-05-07T12:32:23;2.13;;;1.92;;
65706;SDS011;52423;43.512;5.220;2023-05-07T12:34:49;4.07;;;2.70;;
65706;SDS011;52423;43.512;5.220;2023-05-07T12:37:15;4.45;;;2.50;;
65706;SDS011;52423;43.512;5.220;2023-05-07T12:39:44;2.90;;;2.67;;
65706;SDS011;52423;43.512;5.220;2023-05-07T12:42:16;4.20;;;3.05;;
65706;SDS011;52423;43.512;5.220;2023-05-07T12:44:45;4.65;;;3.40;;
65706;SDS011;52423;43.512;5.220;2023-05-07T12:47:11;5.10;;;3.42;;
65706;SDS011;52423;43.512;5.220;2023-05-07T12:49:37;10.05;;;3.20;;
65706;SDS011;52423;43.512;5.220;2023-05-07T12:52:03;2.70;;;2.50;;
65706;SDS011;52423;43.512;5.220;2023-05-07T12:57:02;3.08;;;2.58;;
65706;SDS011;52423;43.512;5.220;2023-05-07T12:59:33;3.58;;;2.72;;
65706;SDS011;52423;43.512;5.220;2023-05-07T13:02:01;4.93;;;2.40;;
65706;SDS011;52423;43.512;5.220;2023-05-07T13:04:27;2.60;;;2.40;;
65706;SDS011;52423;43.512;5.220;2023-05-07T13:06:52;3.20;;;1.98;;
65706;SDS011;52423;43.512;5.220;2023-05-07T13:09:17;2.05;;;1.95;;
65706;SDS011;52423;43.512;5.220;2023-05-07T13:11:43;3.97;;;1.90;;
65706;SDS011;52423;43.512;5.220;2023-05-07T13:14:08;6.32;;;2.50;;
65706;SDS011;52423;43.512;5.220;2023-05-07T13:16:33;2.17;;;1.95;;
65706;SDS011;52423;43.512;5.220;2023-05-07T13:18:59;2.90;;;2.00;;
65706;SDS011;52423;43.512;5.220;2023-05-07T13:21:24;2.30;;;2.10;;
65706;SDS011;52423;43.512;5.220;2023-05-07T13:23:50;5.47;;;2.30;;
65706;SDS011;52423;43.512;5.220;2023-05-07T13:26:15;3.60;;;2.00;;
65706;SDS011;52423;43.512;5.220;2023-05-07T13:28:41;1.92;;;1.83;;
65706;SDS011;52423;43.512;5.220;2023-05-07T13:31:06;3.75;;;2.20;;
65706;SDS011;52423;43.512;5.220;2023-05-07T13:33:32;2.13;;;1.92;;
65706;SDS011;52423;43.512;5.220;2023-05-07T13:35:57;1.90;;;1.80;;
65706;SDS011;52423;43.512;5.220;2023-05-07T13:38:23;2.33;;;2.05;;
65706;SDS011;52423;43.512;5.220;2023-05-07T13:40:48;4.20;;;2.25;;
65706;SDS011;52423;43.512;5.220;2023-05-07T13:43:13;2.30;;;2.10;;
65706;SDS011;52423;43.512;5.220;2023-05-07T13:45:39;2.00;;;1.90;;
65706;SDS011;52423;43.512;5.220;2023-05-07T13:48:05;2.38;;;1.77;;
65706;SDS011;52423;43.512;5.220;2023-05-07T13:50:30;2.00;;;1.80;;
65706;SDS011;52423;43.512;5.220;2023-05-07T13:52:56;3.78;;;2.08;;
65706;SDS011;52423;43.512;5.220;2023-05-07T13:55:21;1.60;;;1.50;;
65706;SDS011;52423;43.512;5.220;2023-05-07T13:57:54;3.95;;;1.83;;
65706;SDS011;52423;43.512;5.220;2023-05-07T14:00:24;3.80;;;1.70;;
65706;SDS011;52423;43.512;5.220;2023-05-07T14:02:50;3.25;;;1.58;;
65706;SDS011;52423;43.512;5.220;2023-05-07T14:05:15;2.90;;;1.70;;
65706;SDS011;52423;43.512;5.220;2023-05-07T14:07:41;8.75;;;1.70;;
65706;SDS011;52423;43.512;5.220;2023-05-07T14:10:06;1.60;;;1.40;;
65706;SDS011;52423;43.512;5.220;2023-05-07T14:12:32;3.50;;;2.55;;
65706;SDS011;52423;43.512;5.220;2023-05-07T14:14:58;9.25;;;4.00;;
65706;SDS011;52423;43.512;5.220;2023-05-07T14:17:23;14.68;;;2.05;;
65706;SDS011;52423;43.512;5.220;2023-05-07T14:19:51;5.78;;;2.42;;
65706;SDS011;52423;43.512;5.220;2023-05-07T14:22:19;2.70;;;2.05;;
65706;SDS011;52423;43.512;5.220;2023-05-07T14:24:45;1.90;;;1.80;;
65706;SDS011;52423;43.512;5.220;2023-05-07T14:27:10;4.93;;;3.63;;
65706;SDS011;52423;43.512;5.220;2023-05-07T14:29:36;3.47;;;2.20;;
65706;SDS011;52423;43.512;5.220;2023-05-07T14:32:01;2.22;;;1.77;;
65706;SDS011;52423;43.512;5.220;2023-05-07T14:34:28;4.03;;;1.75;;
65706;SDS011;52423;43.512;5.220;2023-05-07T14:36:53;2.67;;;1.83;;
65706;SDS011;52423;43.512;5.220;2023-05-07T14:39:18;2.00;;;1.63;;
65706;SDS011;52423;43.512;5.220;2023-05-07T14:41:44;5.53;;;1.75;;
65706;SDS011;52423;43.512;5.220;2023-05-07T14:44:09;1.65;;;1.52;;
65706;SDS011;52423;43.512;5.220;2023-05-07T14:46:35;1.73;;;1.58;;
65706;SDS011;52423;43.512;5.220;2023-05-07T14:49:01;3.05;;;1.90;;
65706;SDS011;52423;43.512;5.220;2023-05-07T14:51:27;4.65;;;1.70;;
65706;SDS011;52423;43.512;5.220;2023-05-07T14:53:53;2.65;;;1.63;;
65706;SDS011;52423;43.512;5.220;2023-05-07T14:56:18;4.85;;;1.80;;
65706;SDS011;52423;43.512;5.220;2023-05-07T14:58:46;3.28;;;1.92;;
65706;SDS011;52423;43.512;5.220;2023-05-07T15:01:12;3.25;;;2.10;;
65706;SDS011;52423;43.512;5.220;2023-05-07T15:03:37;3.63;;;1.90;;
65706;SDS011;52423;43.512;5.220;2023-05-07T15:06:03;1.92;;;1.42;;
65706;SDS011;52423;43.512;5.220;2023-05-07T15:08:28;4.13;;;2.00;;